QSF weather

Ain Arnat Airport
Sétif, Sétif Province, Algeria

Public forecast

Using degrees Celsius for public forecast. Weather courtesy of forecast.io.

Current aviation weather report (METAR) for Ain Arnat Airport

Retrieved 2019/11/17 04:00 UTC (24 minutes ago):

DAAS 170400Z 30006KT 8000 FEW010 SCT026 01/01 Q1013

Aviation forecast (TAF) for Ain Arnat Airport

Retrieved 2019-11-17 00:33 UTC (4 hours ago):

TAF DAAS 162300Z 1700/1724 25013KT 8000 -RA SCT020 BKN026 TEMPO 1700/1712 5000 -TSRA FEW026CB PROB40 TEMPO 1700/1706 25015G25KT 3000 TSRA SCT020CB PROB30 TEMPO 1700/1706 3000 SNRA BKN010